Time;durP1;ratioP1;P1;durP2;ratioP2;P2;SDS_P1;SDS_P2;PMS_P1;PMS_P2;Temp;Humidity;BMP_temperature;BMP_pressure;BME280_temperature;BME280_humidity;BME280_pressure;Samples;Min_cycle;Max_cycle;Signal;HPM_P1;HPM_P2
2021/08/04 00:00:25;;;;;;;6.73;1.93;;;;;;;15.85;85.16;96564.97;5031585;28;20195;-66
2021/08/04 00:02:51;;;;;;;1.40;1.30;;;;;;;15.89;84.93;96566.00;5032618;28;20171;-66
2021/08/04 00:05:17;;;;;;;2.00;1.70;;;;;;;15.79;86.30;96566.81;5031900;28;20667;-66
2021/08/04 00:07:43;;;;;;;1.50;1.40;;;;;;;15.90;85.63;96571.03;5032379;28;20189;-66
2021/08/04 00:10:08;;;;;;;2.43;1.80;;;;;;;15.84;86.16;96566.81;5031380;28;20207;-72
2021/08/04 00:12:34;;;;;;;1.80;1.70;;;;;;;15.75;86.09;96569.22;5032472;28;20537;-66
2021/08/04 00:14:59;;;;;;;1.63;1.53;;;;;;;15.83;86.19;96580.31;5032191;28;20182;-66
2021/08/04 00:17:24;;;;;;;2.33;1.50;;;;;;;15.75;86.55;96571.06;5031279;28;20184;-65
2021/08/04 00:19:50;;;;;;;1.70;1.60;;;;;;;15.71;86.71;96567.38;5030945;28;20189;-67
2021/08/04 00:22:15;;;;;;;1.93;1.50;;;;;;;15.56;87.31;96568.13;5031685;28;20179;-66
2021/08/04 00:24:41;;;;;;;1.53;1.43;;;;;;;15.53;88.55;96570.50;5032245;28;20189;-65
2021/08/04 00:27:06;;;;;;;3.23;1.80;;;;;;;15.69;87.62;96562.34;5031618;28;20720;-66
2021/08/04 00:29:31;;;;;;;1.70;1.60;;;;;;;15.73;87.60;96560.75;5030929;28;20206;-66
2021/08/04 00:31:57;;;;;;;1.53;1.43;;;;;;;15.80;86.55;96563.94;5031647;28;20183;-66
2021/08/04 00:34:22;;;;;;;2.20;2.00;;;;;;;15.78;86.75;96565.22;5023404;28;20209;-66
2021/08/04 00:36:48;;;;;;;1.60;1.50;;;;;;;15.72;86.65;96564.44;5032003;28;20603;-66
2021/08/04 00:39:13;;;;;;;2.33;1.80;;;;;;;15.67;87.02;96559.16;4993130;28;1105352;-66
2021/08/04 00:41:40;;;;;;;2.40;1.70;;;;;;;15.70;86.58;96566.56;5032589;28;20333;-68
2021/08/04 00:44:06;;;;;;;1.80;1.70;;;;;;;15.62;86.59;96555.72;5032922;28;20718;-65
2021/08/04 00:46:31;;;;;;;2.43;1.63;;;;;;;15.59;86.41;96550.97;5032152;28;20261;-66
2021/08/04 00:48:57;;;;;;;1.70;1.47;;;;;;;15.74;85.87;96558.91;5032724;28;20210;-66
2021/08/04 00:51:23;;;;;;;1.73;1.63;;;;;;;15.70;85.55;96555.19;5031693;28;20179;-66
2021/08/04 00:53:48;;;;;;;3.57;1.87;;;;;;;15.69;85.59;96558.91;5032409;28;20627;-66
2021/08/04 00:56:13;;;;;;;1.57;1.47;;;;;;;15.71;85.46;96562.88;5032189;28;20535;-69
2021/08/04 00:58:43;;;;;;;1.57;1.47;;;;;;;15.73;85.14;96565.22;5032862;28;20193;-66
2021/08/04 01:01:12;;;;;;;1.60;1.50;;;;;;;15.70;84.58;96561.28;5032939;28;20194;-66
2021/08/04 01:03:46;;;;;;;1.93;1.53;;;;;;;15.70;84.99;96552.56;5032372;28;20178;-66
2021/08/04 01:06:26;;;;;;;1.87;1.70;;;;;;;15.64;85.82;96551.78;5032210;28;20233;-70
2021/08/04 01:08:57;;;;;;;2.10;1.60;;;;;;;15.65;85.61;96553.38;5031714;28;20202;-66
2021/08/04 01:11:26;;;;;;;1.93;1.40;;;;;;;15.72;83.69;96547.78;5031876;28;20189;-65
2021/08/04 01:13:54;;;;;;;2.47;1.70;;;;;;;15.72;83.54;96535.38;5032337;28;20187;-65
2021/08/04 01:16:46;;;;;;;1.97;1.70;;;;;;;15.73;84.32;96534.31;5031504;28;20186;-65
2021/08/04 01:19:24;;;;;;;1.60;1.50;;;;;;;15.79;84.51;96533.25;5031470;28;20672;-72
2021/08/04 01:22:07;;;;;;;1.70;1.60;;;;;;;15.86;82.67;96535.63;5031946;28;20266;-69
2021/08/04 01:24:45;;;;;;;1.70;1.60;;;;;;;15.93;82.49;96524.81;5016855;28;20213;-65
2021/08/04 01:27:14;;;;;;;3.33;1.60;;;;;;;15.95;82.28;96523.47;5032186;28;20566;-71
2021/08/04 01:29:40;;;;;;;1.50;1.40;;;;;;;15.87;82.49;96529.31;5031692;28;20244;-66
2021/08/04 01:32:08;;;;;;;1.50;1.40;;;;;;;15.99;81.55;96536.97;5032035;28;20204;-65
2021/08/04 01:34:38;;;;;;;1.87;1.50;;;;;;;15.92;82.27;96545.16;5029533;28;20190;-66
2021/08/04 01:37:05;;;;;;;1.50;1.40;;;;;;;16.06;80.94;96546.19;5032451;28;20499;-65
2021/08/04 01:39:33;;;;;;;1.60;1.50;;;;;;;15.92;80.93;96553.09;5030267;28;20226;-66
2021/08/04 01:42:00;;;;;;;1.30;1.20;;;;;;;16.00;80.69;96546.44;5031951;28;20194;-66
2021/08/04 01:44:27;;;;;;;1.60;1.50;;;;;;;15.93;81.15;96544.09;5031084;28;20270;-66
2021/08/04 01:46:53;;;;;;;1.50;1.40;;;;;;;15.84;81.34;96535.09;5032076;28;20320;-66
2021/08/04 01:49:19;;;;;;;2.10;1.57;;;;;;;15.92;80.81;96539.06;5030528;28;20281;-66
2021/08/04 01:51:45;;;;;;;1.70;1.60;;;;;;;15.93;80.82;96538.81;5030759;28;20265;-66
2021/08/04 01:54:12;;;;;;;2.67;1.40;;;;;;;15.85;81.23;96533.25;5031416;28;20182;-71
2021/08/04 01:56:39;;;;;;;1.60;1.50;;;;;;;15.89;80.20;96527.16;5031105;28;20240;-65
2021/08/04 01:59:05;;;;;;;1.43;1.33;;;;;;;15.73;81.06;96530.88;5031808;28;20285;-65
2021/08/04 02:01:30;;;;;;;1.87;1.40;;;;;;;15.89;80.29;96536.94;5030506;28;20193;-65
2021/08/04 02:03:56;;;;;;;1.77;1.50;;;;;;;15.67;81.16;96537.22;5031724;28;20179;-65
2021/08/04 02:06:43;;;;;;;1.50;1.40;;;;;;;15.72;81.47;96534.56;5030530;28;20182;-65
2021/08/04 02:09:40;;;;;;;1.63;1.30;;;;;;;15.91;80.36;96540.13;5029657;28;20234;-67
2021/08/04 02:12:09;;;;;;;1.47;1.37;;;;;;;15.86;80.84;96529.56;5016786;28;20193;-65
2021/08/04 02:14:56;;;;;;;2.30;1.50;;;;;;;16.15;78.77;96534.03;5030789;28;20186;-65
2021/08/04 02:17:38;;;;;;;1.47;1.37;;;;;;;16.14;78.45;96536.94;5029877;28;20214;-65
2021/08/04 02:20:12;;;;;;;2.33;1.73;;;;;;;15.94;78.62;96534.31;5031621;28;20217;-65
2021/08/04 02:22:50;;;;;;;1.80;1.70;;;;;;;15.92;79.15;96533.78;5030907;28;20189;-66
2021/08/04 02:25:19;;;;;;;1.60;1.50;;;;;;;15.73;80.71;96544.88;5014777;28;20175;-71
2021/08/04 02:27:47;;;;;;;1.33;1.23;;;;;;;15.85;80.10;96541.97;5030687;28;20186;-65
2021/08/04 02:30:15;;;;;;;2.27;1.50;;;;;;;15.87;79.90;96537.22;5030796;28;20206;-71
2021/08/04 02:32:41;;;;;;;1.77;1.30;;;;;;;15.97;79.35;96539.84;5028912;28;20197;-65
2021/08/04 02:35:08;;;;;;;2.70;1.50;;;;;;;16.03;78.74;96541.44;5031185;28;20187;-65
2021/08/04 02:37:35;;;;;;;1.60;1.40;;;;;;;15.97;78.84;96529.28;5030668;28;20273;-65
2021/08/04 02:40:01;;;;;;;1.57;1.47;;;;;;;15.90;79.31;96523.47;5030880;28;20352;-65
2021/08/04 02:42:28;;;;;;;1.87;1.47;;;;;;;16.06;78.44;96525.03;5030210;28;20198;-65
2021/08/04 02:44:54;;;;;;;1.70;1.60;;;;;;;15.98;78.68;96524.78;5031192;28;20182;-65
2021/08/04 02:47:21;;;;;;;1.73;1.53;;;;;;;15.98;78.42;96525.59;5030572;28;20186;-65
2021/08/04 02:49:47;;;;;;;1.70;1.50;;;;;;;15.96;78.97;96526.91;5030879;28;20213;-64
2021/08/04 02:52:16;;;;;;;2.03;1.37;;;;;;;16.05;78.50;96526.09;5030573;28;20551;-69
2021/08/04 02:54:44;;;;;;;1.50;1.30;;;;;;;16.06;78.23;96519.75;5030620;28;20187;-65
2021/08/04 02:57:10;;;;;;;1.70;1.30;;;;;;;16.04;77.94;96521.88;5031082;28;20189;-65
2021/08/04 02:59:35;;;;;;;1.60;1.50;;;;;;;16.01;77.76;96525.03;5029182;28;20261;-65
2021/08/04 03:02:01;;;;;;;1.50;1.40;;;;;;;16.00;78.30;96526.09;5029706;28;20191;-66
2021/08/04 03:04:26;;;;;;;1.63;1.53;;;;;;;15.95;78.53;96515.53;5028475;28;20197;-66
2021/08/04 03:06:52;;;;;;;1.83;1.20;;;;;;;16.07;78.01;96517.88;5030304;28;20198;-66
2021/08/04 03:09:17;;;;;;;2.40;1.40;;;;;;;16.02;78.29;96515.25;5030567;28;20289;-70
2021/08/04 03:11:42;;;;;;;1.73;1.60;;;;;;;15.94;78.60;96515.81;5030995;28;20279;-65
2021/08/04 03:14:08;;;;;;;1.60;1.50;;;;;;;15.80;79.40;96518.19;5030847;28;20571;-65
2021/08/04 03:16:33;;;;;;;2.33;1.70;;;;;;;15.90;79.40;96515.53;5030041;28;20183;-66
2021/08/04 03:18:59;;;;;;;1.50;1.40;;;;;;;15.87;79.01;96516.09;5030617;28;20187;-66
2021/08/04 03:21:24;;;;;;;1.60;1.50;;;;;;;15.84;79.22;96510.53;5029989;28;20230;-66
2021/08/04 03:23:49;;;;;;;1.57;1.47;;;;;;;15.88;79.09;96516.88;5030826;28;20186;-65
2021/08/04 03:26:15;;;;;;;1.70;1.60;;;;;;;15.86;79.18;96514.50;5030018;28;20186;-70
2021/08/04 03:28:40;;;;;;;1.63;1.53;;;;;;;15.85;79.37;96522.69;5030085;28;20199;-65
2021/08/04 03:31:05;;;;;;;1.60;1.50;;;;;;;15.90;79.07;96523.47;5030187;28;20191;-67
2021/08/04 03:33:31;;;;;;;1.70;1.60;;;;;;;15.71;79.85;96525.09;5030631;28;20211;-65
2021/08/04 03:35:56;;;;;;;4.60;1.80;;;;;;;15.72;79.65;96526.66;5034528;28;20178;-65
2021/08/04 03:38:22;;;;;;;5.07;1.50;;;;;;;15.36;81.41;96524.00;5033738;28;20554;-65
2021/08/04 03:40:47;;;;;;;2.87;1.67;;;;;;;15.46;80.69;96523.19;5033413;28;20246;-65
2021/08/04 03:43:12;;;;;;;2.00;1.90;;;;;;;15.44;81.33;96529.78;5034182;28;20197;-65
2021/08/04 03:45:38;;;;;;;1.53;1.43;;;;;;;15.60;81.05;96529.59;5033263;28;20201;-65
2021/08/04 03:48:03;;;;;;;1.63;1.53;;;;;;;15.48;81.88;96520.28;5034185;28;20186;-66
2021/08/04 03:50:29;;;;;;;3.30;1.40;;;;;;;15.49;81.93;96530.56;5031797;28;20256;-65
2021/08/04 03:52:54;;;;;;;2.83;1.70;;;;;;;15.50;82.41;96532.16;5032920;28;20182;-65
2021/08/04 03:55:21;;;;;;;2.20;1.80;;;;;;;15.44;82.29;96522.66;5031753;28;20620;-65
2021/08/04 03:57:47;;;;;;;2.53;1.70;;;;;;;15.36;82.25;96517.91;5034197;28;20707;-65
2021/08/04 04:00:13;;;;;;;3.03;1.40;;;;;;;15.39;81.79;96523.44;5034005;28;20273;-65
2021/08/04 04:02:39;;;;;;;1.73;1.60;;;;;;;15.14;83.19;96526.06;5032904;28;20932;-66
2021/08/04 04:05:07;;;;;;;2.53;2.03;;;;;;;15.31;82.88;96528.47;5033783;28;20186;-65
2021/08/04 04:07:33;;;;;;;2.07;1.93;;;;;;;15.47;82.10;96530.06;5033187;28;20186;-65
2021/08/04 04:09:58;;;;;;;1.70;1.60;;;;;;;15.20;83.01;96534.78;5034085;28;20198;-66
2021/08/04 04:12:24;;;;;;;2.37;1.87;;;;;;;15.17;82.65;96527.38;5033376;28;20252;-65
2021/08/04 04:14:49;;;;;;;1.80;1.67;;;;;;;15.17;82.84;96525.53;5033451;28;20639;-65
2021/08/04 04:17:14;;;;;;;1.70;1.60;;;;;;;15.28;82.06;96521.06;5033654;28;20178;-65
2021/08/04 04:19:40;;;;;;;1.93;1.80;;;;;;;15.37;82.01;96527.41;5032960;28;20273;-65
2021/08/04 04:22:05;;;;;;;1.77;1.43;;;;;;;15.50;81.56;96524.25;5033485;28;20186;-65
2021/08/04 04:24:31;;;;;;;2.17;1.73;;;;;;;15.63;80.91;96528.25;5032712;28;20183;-65
2021/08/04 04:26:56;;;;;;;2.00;1.80;;;;;;;15.64;81.04;96527.19;5033210;28;20179;-65
2021/08/04 04:29:21;;;;;;;2.67;1.60;;;;;;;15.71;81.22;96531.16;5032225;28;20605;-65
2021/08/04 04:31:47;;;;;;;4.70;1.70;;;;;;;15.79;80.88;96525.34;5027076;28;20182;-65
2021/08/04 04:34:12;;;;;;;1.70;1.60;;;;;;;15.84;80.48;96529.81;5023655;28;20714;-65
2021/08/04 04:36:37;;;;;;;1.53;1.43;;;;;;;15.86;80.48;96537.50;5032595;28;20262;-65
2021/08/04 04:39:03;;;;;;;2.50;1.80;;;;;;;15.88;80.21;96530.09;5032552;28;20601;-66
2021/08/04 04:41:28;;;;;;;2.10;1.67;;;;;;;15.52;81.20;96534.59;5032327;28;20191;-64
2021/08/04 04:43:53;;;;;;;1.70;1.60;;;;;;;15.22;82.85;96533.47;5031583;28;20639;-64
2021/08/04 04:46:19;;;;;;;1.70;1.60;;;;;;;15.47;81.34;96534.56;5032295;28;20221;-70
2021/08/04 04:48:44;;;;;;;1.90;1.63;;;;;;;15.82;79.85;96531.94;5032753;28;20252;-64
2021/08/04 04:51:10;;;;;;;1.37;1.27;;;;;;;15.93;79.48;96532.72;5032940;28;20211;-64
2021/08/04 04:53:35;;;;;;;1.87;1.60;;;;;;;16.14;78.69;96529.78;5031505;28;20662;-64
2021/08/04 04:56:01;;;;;;;3.60;1.43;;;;;;;16.14;78.75;96531.63;5031521;28;20178;-64
2021/08/04 04:58:26;;;;;;;1.50;1.40;;;;;;;16.29;78.08;96536.88;5032160;28;20214;-64
2021/08/04 05:00:51;;;;;;;1.90;1.57;;;;;;;16.34;77.77;96530.78;5032527;28;20522;-65
2021/08/04 05:03:17;;;;;;;2.00;1.70;;;;;;;16.41;77.31;96533.94;5032786;28;20186;-64
2021/08/04 05:05:42;;;;;;;1.53;1.43;;;;;;;16.50;76.96;96535.75;5032199;28;20186;-63
2021/08/04 05:08:07;;;;;;;1.53;1.40;;;;;;;16.46;77.33;96534.72;5032659;28;20189;-64
2021/08/04 05:10:33;;;;;;;1.60;1.50;;;;;;;16.57;76.63;96540.75;5030293;28;20229;-65
2021/08/04 05:12:58;;;;;;;1.43;1.33;;;;;;;16.78;75.91;96544.16;5032834;28;20269;-66
2021/08/04 05:15:24;;;;;;;1.60;1.50;;;;;;;16.85;75.73;96545.44;5031518;28;20186;-64
2021/08/04 05:17:49;;;;;;;2.83;1.60;;;;;;;16.84;76.17;96551.78;5032295;28;20183;-64
2021/08/04 05:20:14;;;;;;;1.67;1.57;;;;;;;17.02;75.69;96553.84;5032543;28;20195;-64
2021/08/04 05:22:40;;;;;;;2.17;1.47;;;;;;;17.05;74.96;96549.88;5031535;28;20202;-64
2021/08/04 05:25:06;;;;;;;3.43;1.70;;;;;;;17.17;74.44;96552.16;5032274;28;20194;-64
2021/08/04 05:27:32;;;;;;;1.60;1.50;;;;;;;17.40;73.16;96559.44;5030436;28;20640;-64
2021/08/04 05:29:57;;;;;;;10.00;2.00;;;;;;;17.43;73.38;96546.44;5031558;28;20263;-65
2021/08/04 05:32:22;;;;;;;1.90;1.80;;;;;;;17.59;73.10;96555.06;5029921;28;20269;-68
2021/08/04 05:34:48;;;;;;;3.70;1.50;;;;;;;17.59;73.08;96546.34;5030335;28;20198;-65
2021/08/04 05:37:13;;;;;;;1.63;1.53;;;;;;;17.84;71.79;96560.19;5032323;28;20175;-64
2021/08/04 05:39:39;;;;;;;1.60;1.50;;;;;;;17.88;71.32;96557.81;5029423;28;20218;-64
2021/08/04 05:42:04;;;;;;;3.33;1.90;;;;;;;17.82;71.36;96551.75;5031882;28;20198;-64
2021/08/04 05:44:30;;;;;;;1.97;1.87;;;;;;;17.92;71.27;96553.50;5030752;28;20247;-65
2021/08/04 05:46:55;;;;;;;4.63;1.70;;;;;;;17.93;71.31;96559.63;5031620;28;20179;-65
2021/08/04 05:49:21;;;;;;;1.53;1.43;;;;;;;18.06;70.76;96553.63;5031562;28;20203;-70
2021/08/04 05:51:47;;;;;;;3.47;1.70;;;;;;;18.18;70.76;96556.72;5030358;28;20186;-64
2021/08/04 05:54:13;;;;;;;2.03;1.70;;;;;;;18.15;70.28;96552.78;5031594;28;20237;-64
2021/08/04 05:56:38;;;;;;;1.97;1.87;;;;;;;18.14;70.45;96553.03;5030467;28;20456;-63
2021/08/04 05:59:03;;;;;;;3.20;1.73;;;;;;;18.27;70.40;96552.41;5031880;28;20198;-64
2021/08/04 06:01:29;;;;;;;1.63;1.53;;;;;;;18.35;70.18;96540.34;5030454;28;20178;-64
2021/08/04 06:03:54;;;;;;;1.70;1.60;;;;;;;18.61;68.87;96547.78;5031559;28;20619;-64
2021/08/04 06:06:20;;;;;;;1.57;1.47;;;;;;;18.92;68.10;96542.13;5031117;28;20252;-70
2021/08/04 06:08:46;;;;;;;7.10;1.97;;;;;;;19.13;66.53;96547.94;5030791;28;20216;-64
2021/08/04 06:11:11;;;;;;;1.58;1.33;;;;;;;18.87;65.66;96552.81;5031248;28;20187;-63
2021/08/04 06:13:37;;;;;;;2.47;2.23;;;;;;;18.79;65.99;96546.25;5031062;28;20547;-64
2021/08/04 06:16:02;;;;;;;1.60;1.50;;;;;;;18.67;66.38;96556.47;5031300;28;20270;-64
2021/08/04 06:18:28;;;;;;;2.17;1.97;;;;;;;18.75;66.09;96547.09;5030578;28;20182;-65
2021/08/04 06:20:53;;;;;;;2.70;1.40;;;;;;;18.84;66.00;96548.84;5031162;28;20190;-64
2021/08/04 06:23:18;;;;;;;1.87;1.40;;;;;;;18.82;66.23;96551.00;5031094;28;20186;-65
2021/08/04 06:25:44;;;;;;;1.20;1.10;;;;;;;18.97;65.54;96553.47;5030530;28;20651;-65
2021/08/04 06:28:09;;;;;;;3.17;1.40;;;;;;;19.30;65.00;96554.34;5031142;28;20178;-65
2021/08/04 06:30:35;;;;;;;1.57;1.40;;;;;;;19.67;63.60;96558.09;5028046;28;20597;-66
2021/08/04 06:33:00;;;;;;;1.60;1.50;;;;;;;19.79;62.81;96553.91;5031165;28;20225;-69
2021/08/04 06:35:25;;;;;;;1.23;1.20;;;;;;;20.01;61.96;96555.94;5030046;28;20194;-69
2021/08/04 06:37:52;;;;;;;2.47;1.77;;;;;;;20.30;61.08;96553.03;5029861;28;20186;-65
2021/08/04 06:40:17;;;;;;;3.55;1.75;;;;;;;20.31;60.54;96557.28;5031107;28;20676;-66
2021/08/04 06:42:43;;;;;;;2.72;1.50;;;;;;;20.22;60.91;96562.50;5030779;28;20192;-65
2021/08/04 06:45:09;;;;;;;1.45;1.35;;;;;;;20.20;61.01;96575.31;5030682;28;20179;-64
2021/08/04 06:47:34;;;;;;;1.90;1.50;;;;;;;20.27;60.88;96574.94;5030098;28;20186;-64
2021/08/04 06:50:00;;;;;;;2.97;1.70;;;;;;;20.27;60.49;96573.06;5031003;28;20557;-65
2021/08/04 06:52:25;;;;;;;2.03;1.50;;;;;;;20.32;60.54;96570.34;5028955;28;20332;-68
2021/08/04 06:54:51;;;;;;;2.33;1.35;;;;;;;20.55;59.62;96570.47;5030386;28;20232;-65
2021/08/04 06:57:16;;;;;;;1.60;1.50;;;;;;;20.70;58.67;96570.16;5030825;28;20214;-65
2021/08/04 06:59:41;;;;;;;2.15;1.63;;;;;;;20.78;58.48;96572.16;5030289;28;20222;-63
2021/08/04 07:02:07;;;;;;;3.10;1.38;;;;;;;20.98;57.58;96568.25;5030935;28;20568;-65
2021/08/04 07:04:33;;;;;;;1.55;1.45;;;;;;;21.10;56.90;96565.88;5029279;28;20916;-66
2021/08/04 07:07:00;;;;;;;1.38;1.27;;;;;;;21.07;57.30;96571.78;5031206;28;20528;-65
2021/08/04 07:09:25;;;;;;;1.45;1.35;;;;;;;21.08;57.42;96565.38;5033773;28;20298;-70
2021/08/04 07:11:52;;;;;;;1.30;1.20;;;;;;;21.17;57.49;96565.50;5033309;28;20281;-65
2021/08/04 07:14:18;;;;;;;1.20;1.10;;;;;;;21.40;55.97;96575.16;5033511;28;20273;-66
2021/08/04 07:16:45;;;;;;;1.50;1.40;;;;;;;21.65;54.13;96574.56;5033155;28;20252;-65
2021/08/04 07:19:11;;;;;;;1.40;1.17;;;;;;;21.81;53.62;96575.78;5034133;28;20637;-68
2021/08/04 07:21:38;;;;;;;1.42;1.33;;;;;;;21.91;53.31;96564.84;5033351;28;20198;-66
2021/08/04 07:24:04;;;;;;;1.40;1.30;;;;;;;22.22;51.83;96562.25;5034705;28;20183;-65
2021/08/04 07:26:29;;;;;;;2.35;1.30;;;;;;;21.81;51.67;96558.97;5033457;28;20195;-66
2021/08/04 07:28:56;;;;;;;2.90;1.23;;;;;;;21.81;52.08;96566.97;5034479;28;20205;-66
2021/08/04 07:31:22;;;;;;;1.20;1.10;;;;;;;22.18;52.05;96566.59;5032174;28;20190;-65
2021/08/04 07:33:47;;;;;;;1.20;1.20;;;;;;;22.39;51.19;96562.34;5033079;28;20179;-66
2021/08/04 07:36:12;;;;;;;1.55;1.38;;;;;;;22.67;50.36;96562.94;5033679;28;20209;-65
2021/08/04 07:38:38;;;;;;;1.20;1.20;;;;;;;22.74;48.63;96557.94;5032983;28;20282;-65
2021/08/04 07:41:04;;;;;;;1.02;1.02;;;;;;;22.64;47.88;96571.53;5032606;28;20895;-65
2021/08/04 07:43:30;;;;;;;1.30;1.20;;;;;;;22.77;47.60;96565.34;5032269;28;20198;-65
2021/08/04 07:45:55;;;;;;;1.13;1.13;;;;;;;22.88;46.75;96560.50;5033646;28;20182;-65
2021/08/04 07:48:21;;;;;;;1.17;1.10;;;;;;;22.92;46.61;96560.66;5033675;28;20189;-66
2021/08/04 07:50:46;;;;;;;1.67;1.30;;;;;;;22.66;47.67;96560.56;5032783;28;20750;-65
2021/08/04 07:53:12;;;;;;;2.00;1.58;;;;;;;22.42;48.11;96565.47;5032862;28;20261;-65
2021/08/04 07:55:37;;;;;;;1.58;1.33;;;;;;;22.17;48.88;96557.06;5032817;28;20278;-65
2021/08/04 07:58:02;;;;;;;1.42;1.33;;;;;;;22.06;48.72;96545.06;5033624;28;20182;-65
2021/08/04 08:00:28;;;;;;;1.70;1.40;;;;;;;21.25;49.96;96556.78;5033313;28;20708;-73
2021/08/04 08:02:53;;;;;;;2.60;1.13;;;;;;;20.80;51.60;96550.50;5033640;28;20190;-66
2021/08/04 08:05:19;;;;;;;1.30;1.20;;;;;;;19.87;55.00;96547.13;5033057;28;20547;-65
2021/08/04 08:07:49;;;;;;;1.20;1.10;;;;;;;20.04;55.08;96546.59;5032871;28;20298;-65
2021/08/04 08:10:18;;;;;;;1.50;1.40;;;;;;;20.25;54.64;96556.59;5031991;28;20659;-65
2021/08/04 08:12:44;;;;;;;1.42;1.25;;;;;;;20.39;54.05;96547.88;5032021;28;20273;-65
2021/08/04 08:15:11;;;;;;;1.40;1.30;;;;;;;20.47;54.58;96550.63;5033495;28;20273;-68
2021/08/04 08:17:37;;;;;;;1.88;1.27;;;;;;;19.94;54.83;96547.56;5032145;28;20194;-65
2021/08/04 08:20:04;;;;;;;1.17;1.10;;;;;;;20.38;54.27;96544.41;5031854;28;20217;-64
2021/08/04 08:22:29;;;;;;;1.23;1.17;;;;;;;20.11;53.99;96550.47;5032445;28;20269;-71
2021/08/04 08:24:55;;;;;;;1.48;1.38;;;;;;;20.29;53.85;96549.56;5033004;28;20589;-64
2021/08/04 08:27:20;;;;;;;3.55;1.42;;;;;;;21.36;51.98;96550.94;5032760;28;20659;-64
2021/08/04 08:29:45;;;;;;;1.38;1.15;;;;;;;21.75;50.22;96544.19;5031328;28;20405;-65
2021/08/04 08:32:11;;;;;;;1.45;1.23;;;;;;;21.97;49.03;96541.53;5032945;28;20226;-67
2021/08/04 08:34:36;;;;;;;1.58;1.48;;;;;;;22.51;48.46;96553.75;5032221;28;20253;-64
2021/08/04 08:37:01;;;;;;;1.73;1.20;;;;;;;22.87;47.40;96558.13;5033176;28;20289;-64
2021/08/04 08:39:27;;;;;;;1.35;1.25;;;;;;;21.94;48.62;96561.63;5032275;28;20301;-71
2021/08/04 08:41:52;;;;;;;1.35;1.08;;;;;;;22.55;48.14;96557.38;5032358;28;20529;-64
2021/08/04 08:44:18;;;;;;;1.20;1.20;;;;;;;22.83;47.84;96559.84;5033237;28;20183;-65
2021/08/04 08:46:43;;;;;;;1.55;1.45;;;;;;;22.84;47.96;96559.56;5031522;28;20193;-64
2021/08/04 08:49:08;;;;;;;1.20;1.20;;;;;;;22.83;47.83;96563.31;5032741;28;20199;-66
2021/08/04 08:51:34;;;;;;;1.13;1.13;;;;;;;22.89;46.98;96555.94;5030860;28;20193;-66
2021/08/04 08:54:00;;;;;;;2.03;1.20;;;;;;;23.49;45.64;96559.53;5032589;28;20265;-66
2021/08/04 08:56:25;;;;;;;1.38;1.27;;;;;;;23.64;45.70;96552.91;5031368;28;20182;-65
2021/08/04 08:58:54;;;;;;;3.83;1.35;;;;;;;22.94;47.97;96553.13;5031917;28;20190;-65
2021/08/04 09:01:34;;;;;;;1.55;1.35;;;;;;;22.08;50.02;96545.50;5032648;28;20654;-65
2021/08/04 09:04:02;;;;;;;2.30;1.38;;;;;;;21.71;50.40;96536.00;5032923;28;20608;-65
2021/08/04 09:06:52;;;;;;;2.15;1.42;;;;;;;22.23;49.91;96536.34;5030583;28;20182;-73
2021/08/04 09:09:21;;;;;;;2.08;1.13;;;;;;;21.43;50.90;96530.00;5032629;28;20249;-65
2021/08/04 09:11:57;;;;;;;1.60;1.45;;;;;;;21.07;51.40;96529.16;5031799;28;20187;-65
2021/08/04 09:14:27;;;;;;;1.70;1.60;;;;;;;21.48;51.39;96527.19;5031913;28;20189;-65
2021/08/04 09:17:12;;;;;;;1.50;1.40;;;;;;;21.80;50.43;96523.50;5030366;28;20218;-65
2021/08/04 09:19:50;;;;;;;1.50;1.40;;;;;;;21.33;51.41;96513.44;5031803;28;20228;-65
2021/08/04 09:22:26;;;;;;;1.70;1.60;;;;;;;21.28;51.86;96516.22;5030146;28;20175;-65
2021/08/04 09:25:07;;;;;;;2.40;1.83;;;;;;;21.01;52.21;96509.81;5015833;28;20193;-66
2021/08/04 09:27:50;;;;;;;1.77;1.58;;;;;;;20.46;53.67;96511.75;5031331;28;20262;-65
2021/08/04 09:30:17;;;;;;;1.40;1.30;;;;;;;20.72;52.68;96506.72;5029271;28;20217;-65
2021/08/04 09:32:43;;;;;;;2.20;1.83;;;;;;;20.39;53.67;96503.41;5030707;28;20198;-65
2021/08/04 09:35:22;;;;;;;2.00;1.70;;;;;;;20.58;53.02;96505.94;5030893;28;20193;-65
2021/08/04 09:37:48;;;;;;;1.63;1.52;;;;;;;20.21;54.08;96502.38;5031235;28;20293;-65
2021/08/04 09:40:18;;;;;;;1.98;1.52;;;;;;;20.43;53.17;96501.72;5031701;28;20616;-66
2021/08/04 09:42:47;;;;;;;1.40;1.30;;;;;;;20.64;52.69;96508.22;5031292;28;20254;-64
2021/08/04 09:45:15;;;;;;;2.00;1.60;;;;;;;20.68;52.83;96506.53;5031533;28;20193;-64
2021/08/04 09:48:05;;;;;;;2.42;1.40;;;;;;;20.86;52.76;96509.34;5030171;28;20369;-64
2021/08/04 09:50:45;;;;;;;3.92;1.73;;;;;;;20.47;53.80;96509.88;5031153;28;20289;-71
2021/08/04 09:53:17;;;;;;;3.78;1.52;;;;;;;20.61;53.81;96500.03;5030470;28;20236;-64
2021/08/04 09:55:43;;;;;;;4.05;1.45;;;;;;;21.37;52.36;96504.53;5030579;28;20189;-64
2021/08/04 09:58:23;;;;;;;3.08;1.58;;;;;;;21.83;50.30;96506.88;5031918;28;20213;-64
2021/08/04 10:00:51;;;;;;;3.78;1.92;;;;;;;21.77;50.36;96505.44;5030555;28;20181;-66
2021/08/04 10:03:17;;;;;;;3.42;1.25;;;;;;;21.83;49.75;96501.56;5031516;28;20273;-65
2021/08/04 10:05:43;;;;;;;2.10;1.80;;;;;;;21.35;51.61;96498.69;5030604;28;20270;-65
2021/08/04 10:08:12;;;;;;;2.30;1.40;;;;;;;21.63;50.89;96499.38;5031499;28;20190;-65
2021/08/04 10:10:42;;;;;;;2.55;1.50;;;;;;;21.57;50.82;96501.38;5030312;28;20221;-65
2021/08/04 10:13:13;;;;;;;3.53;1.30;;;;;;;21.54;51.12;96506.53;5031429;28;20245;-66
2021/08/04 10:15:42;;;;;;;1.40;1.30;;;;;;;21.94;51.16;96504.75;5030705;28;20175;-67
2021/08/04 10:18:19;;;;;;;2.38;1.73;;;;;;;22.10;50.27;96500.63;5023472;28;20191;-70
2021/08/04 10:20:46;;;;;;;2.33;1.20;;;;;;;21.58;51.21;96494.94;5030029;28;20210;-65
2021/08/04 10:23:17;;;;;;;4.03;1.65;;;;;;;21.73;50.37;96490.34;5032467;28;20273;-65
2021/08/04 10:25:44;;;;;;;1.60;1.15;;;;;;;20.94;52.83;96485.47;5014597;28;20185;-66
2021/08/04 10:28:10;;;;;;;2.72;1.42;;;;;;;20.99;53.01;96480.03;5030221;28;20218;-66
2021/08/04 10:30:37;;;;;;;4.03;1.52;;;;;;;22.19;50.50;96477.41;5026859;28;20217;-66
2021/08/04 10:33:04;;;;;;;1.35;1.35;;;;;;;22.46;48.83;96479.06;5029590;28;20178;-66
2021/08/04 10:35:30;;;;;;;1.50;1.25;;;;;;;22.37;48.15;96478.28;5030723;28;20237;-66
2021/08/04 10:37:56;;;;;;;14.85;3.13;;;;;;;22.76;47.12;96477.47;5029777;28;20584;-65
2021/08/04 10:40:26;;;;;;;5.75;1.40;;;;;;;22.94;47.16;96467.59;5030317;28;20238;-66
2021/08/04 10:42:51;;;;;;;1.88;1.15;;;;;;;22.77;46.96;96463.78;5033856;28;20801;-66
2021/08/04 10:45:23;;;;;;;1.02;1.02;;;;;;;22.36;47.70;96468.69;5033829;28;20182;-66
2021/08/04 10:47:52;;;;;;;5.25;1.65;;;;;;;22.06;48.13;96462.28;5033555;28;20182;-67
2021/08/04 10:50:17;;;;;;;2.72;1.60;;;;;;;22.97;46.84;96459.72;5034915;28;20216;-66
2021/08/04 10:52:58;;;;;;;1.50;1.40;;;;;;;23.10;46.34;96463.34;5032582;28;20372;-67
2021/08/04 10:55:24;;;;;;;3.65;1.45;;;;;;;23.73;45.15;96459.22;5034992;28;20190;-65
2021/08/04 10:58:16;;;;;;;4.38;1.40;;;;;;;24.04;44.86;96462.44;5033682;28;20191;-65
2021/08/04 11:00:41;;;;;;;1.52;1.38;;;;;;;23.94;44.16;96463.59;5030151;28;20221;-66
2021/08/04 11:03:31;;;;;;;1.48;1.27;;;;;;;23.87;45.42;96455.25;5034753;28;20640;-65
2021/08/04 11:06:05;;;;;;;1.40;1.17;;;;;;;23.45;45.74;96456.88;5033795;28;20183;-65
2021/08/04 11:08:31;;;;;;;1.60;1.50;;;;;;;23.16;45.57;96465.56;5033595;28;20183;-65
2021/08/04 11:10:57;;;;;;;1.58;1.30;;;;;;;23.29;45.70;96457.69;5033343;28;20233;-66
2021/08/04 11:13:41;;;;;;;1.23;1.15;;;;;;;22.69;46.35;96456.50;5033330;28;20179;-65
2021/08/04 11:16:29;;;;;;;1.23;1.13;;;;;;;22.04;47.41;96450.34;5034753;28;20182;-65
2021/08/04 11:19:06;;;;;;;1.58;1.20;;;;;;;22.50;46.12;96449.88;5033510;28;20187;-66
2021/08/04 11:21:33;;;;;;;1.00;1.00;;;;;;;22.16;46.97;96451.34;5019407;28;20166;-67
2021/08/04 11:23:59;;;;;;;1.17;1.17;;;;;;;22.65;46.48;96450.22;5034313;28;20175;-68
2021/08/04 11:26:38;;;;;;;1.20;1.10;;;;;;;22.70;46.70;96441.25;5034209;28;20195;-65
2021/08/04 11:29:08;;;;;;;1.92;1.20;;;;;;;23.33;45.81;96439.91;5032622;28;20581;-68
2021/08/04 11:31:34;;;;;;;3.08;1.30;;;;;;;23.41;45.53;96436.41;5028968;28;20175;-71
2021/08/04 11:34:27;;;;;;;1.65;1.42;;;;;;;23.02;47.24;96440.84;5033513;28;20270;-65
2021/08/04 11:36:58;;;;;;;4.82;1.60;;;;;;;22.14;47.58;96442.06;5031962;28;21082;-65